Nearby METAR Reports

 

MWCR - Owen Roberts, Grand Cayman
Distance from station: NNE 3mi, 4km
Updated: 19/08/2017 07:00
Few Clouds
Few Clouds
 Wind from N
Wind: N 7 mph , 11 km/h
Temperature: 84°F , 29°C
Heat Index: 94°F , 34°C
Dew Point: 77°F , 25°C
Humidity: 79%
Barometer: 1011 hPa
Clouds: Few Clouds
Visibility: 6 miles , 10 km
Cloud details: Few Clouds 1800 ft
2017/08/19 12:00 MWCR 191200Z 01006KT 9999 FEW018 29/25 Q1011
MWCB - Gerrard Smith, Cayman Brac
Distance from station: ENE 102mi, 164km
Updated: 19/08/2017 07:00
Few Clouds
Few Clouds
 Wind from E
Wind: E 3 mph , 6 km/h
Temperature: 82°F , 28°C
Heat Index: 90°F , 32°C
Dew Point: 77°F , 25°C
Humidity: 84%
Barometer: 1012 hPa
Clouds: Few Clouds
Visibility: 6 miles , 10 km
Cloud details: Few Clouds 1800 ft
2017/08/19 12:00 MWCB 191200Z 09003KT 9999 FEW018 28/25 Q1012
 
MUCL - Cayo Largo D Sur, Cuba
Distance from station: N 164mi, 264km
Updated: 19/08/2017 06:52
Few Clouds
Few Clouds
 Wind from NE
Wind: NE 12 mph , 19 km/h
Temperature: 84°F , 29°C
Heat Index: 92°F , 33°C
Dew Point: 75°F , 24°C
Humidity: 74%
Barometer: 1013 hPa
Clouds: Few Clouds
Visibility: 6 miles , 9 km
Cloud details: Few Clouds 2000 ft
2017/08/19 11:52 MUCL 191152Z 05010KT 9000 FEW020 29/24 Q1013
MUCF - Cienfuegos(Civ/M, Cuba
Distance from station: NNE 208mi, 335km
Updated: 19/08/2017 06:59

 Wind from NE
Wind: NE 3 mph , 6 km/h
Temperature: 77°F , 25°C
Dew Point: 75°F , 24°C
Humidity: 94%
Barometer: 1014 hPa
2017/08/19 11:59 MUCF 191159Z AUTO 04003KT 25/24 Q1014
 
MKJS - Sangster/Montego Bay, Jamaica
Distance from station: ESE 233mi, 375km
Updated: 19/08/2017 07:00
Few Clouds
Few Clouds
 Wind from ESE
Wind: ESE 5 mph , 7 km/h
Temperature: 84°F , 29°C
Heat Index: 94°F , 34°C
Dew Point: 77°F , 25°C
Humidity: 79%
Barometer: 1011 hPa
Clouds: Few Clouds
Visibility: 6 miles , 10 km
Cloud details: Few Clouds 2200 ft
2017/08/19 12:00 MKJS 191200Z 11004KT 9999 FEW022 29/25 Q1011
MUSC - Santa Clara, Cuba
Distance from station: NNE 242mi, 389km
Updated: 19/08/2017 06:50
Few Clouds
Few Clouds
 Wind from varies
Wind: varies 1 mph , 2 km/h
Temperature: 77°F , 25°C
Dew Point: 73°F , 23°C
Humidity: 89%
Barometer: 1014 hPa
Clouds: Few Clouds
Visibility: 6 miles , 9 km
Cloud details: Few Clouds 2000 ft
2017/08/19 11:50 MUSC 191150Z VRB01KT 9000 FEW020 25/23 Q1014
 
MUVR - Varadero, Cuba
Distance from station: N 260mi, 419km
Updated: 19/08/2017 06:52
Few Clouds
Few Clouds
 Wind from SSE
Wind: SSE 2 mph , 4 km/h
Temperature: 75°F , 24°C
Dew Point: 68°F , 20°C
Humidity: 78%
Barometer: 1014 hPa
Clouds: Few Clouds
Visibility: 6 miles , 9 km
Cloud details: Few Clouds 3000 ft
2017/08/19 11:52 MUVR 191152Z 15002KT 9000 FEW030 24/20 Q1014
MUHA - Havana/Jose Mar, Cuba
Distance from station: NNW 264mi, 425km
Updated: 19/08/2017 06:55
Few Clouds
Few Clouds
 Wind from varies
Wind: varies 2 mph , 4 km/h
Temperature: 72°F , 22°C
Dew Point: 72°F , 22°C
Humidity: 100%
Barometer: 1014 hPa
Clouds: Few Clouds
Visibility: 6 miles , 9 km
Cloud details: Few Clouds 3000 ft
2017/08/19 11:55 MUHA 191155Z VRB02KT 9000 FEW030 22/22 Q1014
 
MUCM - Camaguey/Iganci, Cuba
Distance from station: NE 273mi, 439km
Updated: 19/08/2017 06:54
Nearby fog, Partly cloudy
Nearby fog, Partly cloudy
 Wind from E
Wind: E 5 mph , 7 km/h
Temperature: 77°F , 25°C
Dew Point: 77°F , 25°C
Humidity: 100%
Barometer: 1014 hPa
Summary: Nearby Fog
Clouds: Partly cloudy
Visibility: 4 miles , 7 km
2017/08/19 11:54 MUCM 191154Z 09004KT 7000 VCFG NSC 25/25 Q1014
MUMZ - Manzanillo, Cuba
Distance from station: ENE 287mi, 462km
Updated: 11/10/2016 09:50
NOT Current
Partly cloudy
Partly cloudy
 Wind from ENE
Wind: ENE 12 mph , 19 km/h
Temperature: 84°F , 29°C
Heat Index: 89°F , 32°C
Dew Point: 72°F , 22°C
Humidity: 66%
Barometer: 1014 hPa
Clouds: Partly cloudy
Visibility: 6 miles , 9 km
Cloud details: Partly cloudy 2000 ft
2016/10/11 14:50 MUMZ 111450Z 07010KT 9000 SCT020 29/22 Q1014
 
MUCC - Canagua, Cuba
Distance from station: NE 296mi, 476km
Updated: 19/08/2017 06:51
Partly cloudy
Partly cloudy
 Wind from NNE
Wind: NNE 3 mph , 6 km/h
Temperature: 79°F , 26°C
Dew Point: 75°F , 24°C
Humidity: 89%
Barometer: 1013 hPa
Clouds: Partly cloudy
Visibility: 6 miles , 9 km
Cloud details: Partly cloudy 1800 ft
2017/08/19 11:51 MUCC 191151Z 03003KT 350V060 9000 SCT018CB 26/24 Q1013
MKJP - Kingston/Norman Manley, Jamaica
Distance from station: ESE 315mi, 507km
Updated: 19/08/2017 07:00
Few Clouds
Few Clouds
 Wind from N
Wind: N 3 mph , 6 km/h
Temperature: 81°F , 27°C
Heat Index: 87°F , 31°C
Dew Point: 75°F , 24°C
Humidity: 84%
Barometer: 1011 hPa
Clouds: Few Clouds
Visibility: 6 miles , 10 km
Cloud details: Few Clouds 2200 ft
2017/08/19 12:00 MKJP 191200Z 01003KT 9999 FEW022 27/24 Q1011
 
MHPL - Puerto Lempira, Honduras
Distance from station: SSW 318mi, 513km
Updated: 19/08/2017 07:00
Mostly cloudy
Mostly cloudy
 Wind from N
Wind: N 6 mph , 9 km/h
Temperature: 82°F , 28°C
Heat Index: 90°F , 32°C
Dew Point: 77°F , 25°C
Humidity: 84%
Barometer: 1013 hPa
Clouds: Mostly cloudy
Visibility: 6 miles , 10 km
Cloud details: Partly cloudy 2800 ft
Mostly cloudy 25000 ft
2017/08/19 12:00 MHPL 191200Z 36005KT 9999 SCT028TCU BKN250 28/25 Q1013 TCU ALL HZ
MUHG - Holguin (civ/Mil, Cuba
Distance from station: ENE 345mi, 555km
Updated: 19/08/2017 06:50
Clear
Clear
 Wind from E
Wind: E 3 mph , 6 km/h
Temperature: 81°F , 27°C
Heat Index: 88°F , 31°C
Dew Point: 77°F , 25°C
Humidity: 89%
Barometer: 1013 hPa
Clouds: Clear
Visibility: 5 miles , 8 km
2017/08/19 11:50 MUHG 191150Z 09003KT 8000 SKC 27/25 Q1013